NCAR-RAP Real-Time Weather Data

Output produced by METARs form (19 June 2019  10:40 UTC)
found at http://weather.rap.ucar.edu/surface/
 
Conditions at: KIND observed 19 June 2019  09:54 UTC
Temperature: 21.1°C (70°F)
Dewpoint: 20.0°C (68°F) [RH = 93%]
Pressure (altimeter): 29.79 inches Hg (1008.9 mb)
[Sea-level pressure: 1008.3 mb]
Winds: calm
Visibility: 10 or more miles (16+ km)
Ceiling: 8000 feet AGL
Clouds: scattered clouds at 5500 feet AGL
broken clouds at 8000 feet AGL
broken clouds at 25000 feet AGL
Present Weather: no significant weather observed at this time
KIND 190954Z 00000KT 10SM SCT055 BKN080 BKN250 21/20 A2979 RMK AO2 SLP083 T02110200